Time;durP1;ratioP1;P1;durP2;ratioP2;P2;SDS_P1;SDS_P2;PMS_P1;PMS_P2;Temp;Humidity;BMP_temperature;BMP_pressure;BME280_temperature;BME280_humidity;BME280_pressure;Samples;Min_cycle;Max_cycle;Signal;HPM_P1;HPM_P2
2021/09/07 00:00:12;;;;;;;14.80;11.60;;;;;;;11.26;100.00;96549.03;1030838;28;20029;-67
2021/09/07 00:00:42;;;;;;;12.70;10.73;;;;;;;11.23;100.00;96539.03;1030200;28;20037;-67
2021/09/07 00:01:13;;;;;;;14.18;10.68;;;;;;;11.26;100.00;96543.78;1026249;28;20030;-66
2021/09/07 00:01:43;;;;;;;15.98;12.02;;;;;;;11.25;100.00;96545.63;1030414;28;20085;-67
2021/09/07 00:02:14;;;;;;;16.98;12.32;;;;;;;11.22;100.00;96537.44;1030723;28;20023;-66
2021/09/07 00:02:44;;;;;;;16.25;12.68;;;;;;;11.18;100.00;96537.13;1026781;28;20031;-67
2021/09/07 00:03:15;;;;;;;14.07;10.77;;;;;;;11.22;100.00;96546.13;1026734;28;20034;-64
2021/09/07 00:03:45;;;;;;;12.77;11.40;;;;;;;11.16;100.00;96530.53;1026571;28;20480;-67
2021/09/07 00:04:15;;;;;;;12.80;11.00;;;;;;;11.16;100.00;96539.22;1024845;28;20023;-67
2021/09/07 00:04:46;;;;;;;14.18;11.63;;;;;;;11.20;100.00;96537.69;1030673;28;20030;-68
2021/09/07 00:05:16;;;;;;;15.38;11.77;;;;;;;11.20;100.00;96544.75;1030916;28;20053;-67
2021/09/07 00:05:47;;;;;;;17.48;11.43;;;;;;;11.17;100.00;96540.03;1030493;28;20030;-68
2021/09/07 00:06:17;;;;;;;14.57;12.20;;;;;;;11.18;100.00;96538.97;1030737;28;20026;-68
2021/09/07 00:06:48;;;;;;;17.52;11.40;;;;;;;11.17;100.00;96540.03;1034771;28;20034;-67
2021/09/07 00:07:19;;;;;;;12.48;10.88;;;;;;;11.16;100.00;96541.06;1030711;28;20042;-67
2021/09/07 00:07:50;;;;;;;14.45;11.88;;;;;;;11.16;100.00;96552.34;1029952;28;20081;-67
2021/09/07 00:08:20;;;;;;;16.23;12.15;;;;;;;11.15;100.00;96542.09;1026925;28;20337;-67
2021/09/07 00:08:51;;;;;;;17.30;12.05;;;;;;;11.13;100.00;96544.94;1026805;28;20033;-68
2021/09/07 00:09:21;;;;;;;15.73;12.18;;;;;;;11.13;100.00;96544.94;1028633;28;20030;-68
2021/09/07 00:09:54;;;;;;;15.23;12.70;;;;;;;11.12;100.00;96543.38;1030560;28;20026;-68
2021/09/07 00:10:24;;;;;;;15.32;12.25;;;;;;;11.05;100.00;96527.81;1030975;28;20113;-67
2021/09/07 00:10:55;;;;;;;15.18;12.75;;;;;;;11.11;100.00;96541.00;1033835;28;20264;-67
2021/09/07 00:11:28;;;;;;;14.57;12.07;;;;;;;11.07;100.00;96546.75;1026523;28;20031;-67
2021/09/07 00:11:59;;;;;;;15.63;12.27;;;;;;;11.04;100.00;96531.47;1030320;28;20026;-68
2021/09/07 00:12:29;;;;;;;15.15;12.63;;;;;;;11.00;100.00;96529.56;1030836;28;20659;-68
2021/09/07 00:13:00;;;;;;;16.17;11.75;;;;;;;11.07;100.00;96538.88;1034312;28;20221;-68
2021/09/07 00:13:30;;;;;;;15.80;12.27;;;;;;;11.03;100.00;96535.16;1034832;28;20022;-67
2021/09/07 00:14:00;;;;;;;16.60;12.75;;;;;;;11.01;100.00;96536.44;1034498;28;20030;-67
2021/09/07 00:14:31;;;;;;;16.60;13.40;;;;;;;10.97;100.00;96533.50;1030311;28;20037;-68
2021/09/07 00:15:02;;;;;;;18.02;13.00;;;;;;;10.98;100.00;96531.66;1030841;28;20025;-64
2021/09/07 00:15:33;;;;;;;16.95;13.05;;;;;;;10.95;100.00;96529.53;1026532;28;20402;-66
2021/09/07 00:16:04;;;;;;;15.23;12.82;;;;;;;10.93;100.00;96527.16;1026542;28;20289;-64
2021/09/07 00:16:34;;;;;;;18.15;13.25;;;;;;;10.92;100.00;96527.38;1022952;28;20054;-67
2021/09/07 00:17:05;;;;;;;16.52;12.57;;;;;;;10.90;100.00;96530.28;1022595;28;20098;-67
2021/09/07 00:17:35;;;;;;;14.40;12.18;;;;;;;10.89;100.00;96533.91;1026600;28;20050;-68
2021/09/07 00:18:06;;;;;;;15.20;13.02;;;;;;;10.83;100.00;96521.75;1021921;28;20388;-68
2021/09/07 00:18:36;;;;;;;16.05;12.65;;;;;;;10.85;100.00;96525.72;1026475;28;20042;-67
2021/09/07 00:19:08;;;;;;;18.40;12.95;;;;;;;10.85;100.00;96527.56;1030790;28;20022;-67
2021/09/07 00:19:39;;;;;;;15.25;12.50;;;;;;;10.84;100.00;96532.03;1030199;28;20053;-67
2021/09/07 00:20:10;;;;;;;15.18;12.73;;;;;;;10.83;100.00;96527.00;1030501;28;20241;-67
2021/09/07 00:20:40;;;;;;;16.35;13.07;;;;;;;10.84;100.00;96526.00;1026486;28;20014;-67
2021/09/07 00:21:11;;;;;;;18.95;12.82;;;;;;;10.70;100.00;96504.56;1026045;28;20273;-66
2021/09/07 00:21:41;;;;;;;17.42;13.75;;;;;;;10.82;100.00;96528.84;1032209;28;20077;-68
2021/09/07 00:22:12;;;;;;;20.23;13.38;;;;;;;10.76;100.00;96515.91;1034660;28;20088;-67
2021/09/07 00:22:42;;;;;;;16.13;13.40;;;;;;;10.81;100.00;96531.72;1026410;28;20481;-67
2021/09/07 00:23:13;;;;;;;16.33;13.43;;;;;;;10.82;100.00;96520.97;1026562;28;20591;-66
2021/09/07 00:23:43;;;;;;;18.85;14.05;;;;;;;10.81;100.00;96526.47;1022826;28;20027;-67
2021/09/07 00:24:18;;;;;;;19.45;14.00;;;;;;;10.81;100.00;96526.47;1030815;28;20582;-66
2021/09/07 00:24:48;;;;;;;17.55;13.73;;;;;;;10.80;100.00;96522.28;1030584;28;20022;-67
2021/09/07 00:25:19;;;;;;;17.05;14.30;;;;;;;10.78;100.00;96522.50;1026858;28;20696;-67
2021/09/07 00:25:49;;;;;;;20.25;13.18;;;;;;;10.81;100.00;96523.84;1030813;28;20038;-67
2021/09/07 00:26:20;;;;;;;16.45;13.15;;;;;;;10.81;100.00;96521.22;1027160;28;20102;-67
2021/09/07 00:26:51;;;;;;;17.00;13.38;;;;;;;10.79;100.00;96521.44;1034265;28;20022;-67
2021/09/07 00:27:22;;;;;;;16.55;13.52;;;;;;;10.76;100.00;96519.31;1038817;28;20021;-67
2021/09/07 00:27:52;;;;;;;17.58;13.88;;;;;;;10.78;100.00;96522.50;1038702;28;20260;-67
2021/09/07 00:28:23;;;;;;;16.13;13.38;;;;;;;10.73;100.00;96511.94;1036959;28;20037;-67
2021/09/07 00:28:53;;;;;;;16.55;13.20;;;;;;;10.72;100.00;96514.81;1026408;28;20030;-64
2021/09/07 00:29:24;;;;;;;17.48;13.05;;;;;;;10.77;100.00;96520.91;1026678;28;20121;-67
2021/09/07 00:29:55;;;;;;;15.50;13.32;;;;;;;10.75;100.00;96522.97;1026545;28;20023;-67
2021/09/07 00:30:25;;;;;;;19.83;14.02;;;;;;;10.75;100.00;96522.19;1026656;28;20270;-68
2021/09/07 00:30:56;;;;;;;15.55;12.75;;;;;;;10.73;100.00;96519.00;1030183;28;20034;-67
2021/09/07 00:31:26;;;;;;;15.18;13.05;;;;;;;10.69;100.00;96518.69;1026240;28;20030;-68
2021/09/07 00:31:57;;;;;;;18.02;12.90;;;;;;;10.72;100.00;96520.06;1028778;28;20062;-68
2021/09/07 00:32:27;;;;;;;18.60;14.15;;;;;;;10.74;100.00;96523.25;1030857;28;20022;-68
2021/09/07 00:32:58;;;;;;;15.20;12.85;;;;;;;10.72;100.00;96517.44;1038674;28;20029;-67
2021/09/07 00:33:28;;;;;;;14.52;12.45;;;;;;;10.74;100.00;96520.63;1034536;28;20041;-69
2021/09/07 00:33:59;;;;;;;15.60;12.68;;;;;;;10.73;100.00;96519.00;1022035;28;20031;-67
2021/09/07 00:34:30;;;;;;;14.65;12.55;;;;;;;10.77;100.00;96526.16;1022632;29;20054;-67
2021/09/07 00:35:01;;;;;;;15.88;13.70;;;;;;;10.79;100.00;96512.78;1034414;28;20571;-67
2021/09/07 00:35:31;;;;;;;17.10;13.00;;;;;;;10.81;100.00;96515.97;1034754;28;20265;-68
2021/09/07 00:36:02;;;;;;;16.95;13.52;;;;;;;10.78;100.00;96509.38;1031038;28;20022;-69
2021/09/07 00:36:32;;;;;;;16.83;12.80;;;;;;;10.79;100.00;96513.56;1027149;28;20034;-69
2021/09/07 00:37:03;;;;;;;17.27;13.43;;;;;;;10.81;100.00;96508.88;1028995;28;20512;-67
2021/09/07 00:37:33;;;;;;;14.85;12.70;;;;;;;10.81;100.00;96511.50;1018727;29;20023;-66
2021/09/07 00:38:04;;;;;;;17.02;13.15;;;;;;;10.88;100.00;96521.03;1015053;29;20032;-69
2021/09/07 00:38:34;;;;;;;17.52;12.52;;;;;;;10.87;100.00;96515.00;1015530;29;20471;-68
2021/09/07 00:39:05;;;;;;;18.13;13.18;;;;;;;10.82;100.00;96509.69;1018714;28;20081;-68
2021/09/07 00:39:35;;;;;;;17.05;12.68;;;;;;;10.91;100.00;96521.34;1026866;28;20035;-67
2021/09/07 00:40:06;;;;;;;15.68;12.38;;;;;;;10.90;100.00;96517.13;1034928;28;20080;-67
2021/09/07 00:40:37;;;;;;;18.77;12.68;;;;;;;10.91;100.00;96510.84;1025046;28;20508;-65
2021/09/07 00:41:07;;;;;;;15.68;13.23;;;;;;;10.90;100.00;96514.50;1030402;28;20249;-68
2021/09/07 00:41:39;;;;;;;17.23;13.27;;;;;;;10.86;100.00;96513.38;1029871;28;20023;-67
2021/09/07 00:42:09;;;;;;;17.13;13.15;;;;;;;10.88;100.00;96521.81;1029011;28;20105;-67
2021/09/07 00:42:39;;;;;;;15.30;12.95;;;;;;;10.87;100.00;96515.00;1030853;28;20397;-68
2021/09/07 00:43:10;;;;;;;16.30;13.02;;;;;;;10.87;100.00;96515.00;1030632;28;20034;-67
2021/09/07 00:43:41;;;;;;;16.90;13.07;;;;;;;10.87;100.00;96512.38;1033691;28;20030;-67
2021/09/07 00:44:15;;;;;;;25.10;13.43;;;;;;;10.85;100.00;96512.59;1027101;28;20027;-68
2021/09/07 00:44:46;;;;;;;17.48;13.63;;;;;;;10.82;100.00;96510.47;1027607;28;20035;-68
2021/09/07 00:45:16;;;;;;;18.98;13.65;;;;;;;10.81;100.00;96511.50;1026269;28;20265;-65
2021/09/07 00:45:47;;;;;;;17.17;13.63;;;;;;;10.80;100.00;96509.94;1026890;28;20039;-67
2021/09/07 00:46:17;;;;;;;18.60;13.40;;;;;;;10.80;100.00;96509.16;1026833;28;20027;-67
2021/09/07 00:46:58;;;;;;;15.73;12.60;;;;;;;10.78;100.00;96513.84;1027014;28;20031;-68
2021/09/07 00:47:28;;;;;;;20.48;14.95;;;;;;;10.76;100.00;96514.06;1023845;28;20042;-67
2021/09/07 00:47:59;;;;;;;16.92;13.60;;;;;;;10.74;100.00;96510.91;1028472;28;20269;-67
2021/09/07 00:48:29;;;;;;;16.27;13.13;;;;;;;10.75;100.00;96514.31;1026828;28;20026;-67
2021/09/07 00:49:00;;;;;;;18.48;13.85;;;;;;;10.74;100.00;96510.13;1028161;28;20535;-67
2021/09/07 00:49:30;;;;;;;23.08;13.80;;;;;;;10.74;100.00;96504.88;1030752;28;20038;-67
2021/09/07 00:50:01;;;;;;;21.02;13.82;;;;;;;10.71;100.00;96505.34;1026866;28;20124;-67
2021/09/07 00:50:31;;;;;;;20.70;14.30;;;;;;;10.72;100.00;96509.56;1027149;28;20027;-67
2021/09/07 00:51:02;;;;;;;18.75;13.50;;;;;;;10.72;100.00;96504.31;1026642;28;20070;-66
2021/09/07 00:51:32;;;;;;;16.23;12.85;;;;;;;10.70;100.00;96506.41;1026040;28;20484;-67
2021/09/07 00:52:04;;;;;;;17.65;13.95;;;;;;;10.63;100.00;96498.69;1031155;28;20030;-67
2021/09/07 00:52:35;;;;;;;16.45;13.43;;;;;;;10.68;100.00;96505.84;1030419;28;20033;-68
2021/09/07 00:53:05;;;;;;;18.13;13.38;;;;;;;10.68;100.00;96500.59;1031176;28;20273;-67
2021/09/07 00:53:36;;;;;;;16.80;13.85;;;;;;;10.67;100.00;96496.38;1026542;28;20445;-67
2021/09/07 00:54:07;;;;;;;16.05;12.98;;;;;;;10.69;100.00;96497.69;1023111;28;20046;-67
2021/09/07 00:54:38;;;;;;;16.50;13.30;;;;;;;10.68;100.00;96497.97;1030929;28;20300;-67
2021/09/07 00:55:09;;;;;;;14.10;12.15;;;;;;;10.70;100.00;96498.53;1023261;28;20031;-68
2021/09/07 00:55:39;;;;;;;16.40;12.70;;;;;;;10.69;100.00;96492.47;1031029;28;20030;-67
2021/09/07 00:56:10;;;;;;;16.73;13.00;;;;;;;10.66;100.00;96487.69;1026560;28;20262;-67
2021/09/07 00:56:41;;;;;;;14.82;12.48;;;;;;;10.64;100.00;96484.53;1026606;28;20408;-68
2021/09/07 00:57:11;;;;;;;15.93;12.65;;;;;;;10.70;100.00;96499.31;1027029;28;20534;-68
2021/09/07 00:57:43;;;;;;;15.63;13.00;;;;;;;10.65;100.00;96485.31;1019860;29;20326;-67
2021/09/07 00:58:15;;;;;;;15.90;12.65;;;;;;;10.68;100.00;96493.50;1029480;28;20080;-66
2021/09/07 00:58:45;;;;;;;15.88;12.93;;;;;;;10.64;100.00;96492.41;1030698;28;20261;-67
2021/09/07 00:59:15;;;;;;;18.05;12.27;;;;;;;10.71;100.00;96494.84;1030580;28;20545;-67
2021/09/07 00:59:46;;;;;;;20.60;14.45;;;;;;;10.68;100.00;96490.88;1019771;29;20024;-66
2021/09/07 01:00:17;;;;;;;16.83;13.18;;;;;;;10.69;100.00;96495.06;1026665;28;20034;-68
2021/09/07 01:00:47;;;;;;;19.50;13.32;;;;;;;10.70;100.00;96494.06;1026764;28;20030;-64
2021/09/07 01:01:18;;;;;;;17.77;13.20;;;;;;;10.64;100.00;96483.75;1026497;28;20050;-66
2021/09/07 01:01:48;;;;;;;17.23;12.90;;;;;;;10.72;100.00;96491.19;1026056;28;20030;-67
2021/09/07 01:02:19;;;;;;;18.30;13.60;;;;;;;10.67;100.00;96483.25;1023144;29;20565;-67
2021/09/07 01:02:49;;;;;;;15.70;13.10;;;;;;;10.74;100.00;96494.38;1035901;28;20033;-67
2021/09/07 01:03:20;;;;;;;17.90;13.98;;;;;;;10.74;100.00;96494.38;1035720;28;20482;-67
2021/09/07 01:03:50;;;;;;;19.83;13.52;;;;;;;10.74;100.00;96497.78;1024249;28;20047;-67
2021/09/07 01:04:20;;;;;;;17.23;13.07;;;;;;;10.76;100.00;96492.28;1027586;28;20027;-67
2021/09/07 01:04:51;;;;;;;15.20;13.05;;;;;;;10.77;100.00;96496.50;1027510;28;20034;-66
2021/09/07 01:05:22;;;;;;;16.98;13.82;;;;;;;10.77;100.00;96497.28;1024866;28;20079;-68
2021/09/07 01:05:52;;;;;;;20.30;14.10;;;;;;;10.73;100.00;96487.50;1035739;28;20532;-67
2021/09/07 01:06:22;;;;;;;19.83;13.77;;;;;;;10.70;100.00;96483.56;1031328;28;20063;-68
2021/09/07 01:06:53;;;;;;;17.42;13.45;;;;;;;10.74;100.00;96489.13;1031696;28;20030;-67
2021/09/07 01:07:24;;;;;;;24.25;15.13;;;;;;;10.65;100.00;96485.31;1035573;28;20042;-67
2021/09/07 01:07:54;;;;;;;18.60;13.98;;;;;;;10.73;100.00;96492.75;1033727;28;20522;-67
2021/09/07 01:08:24;;;;;;;18.10;14.02;;;;;;;10.67;100.00;96489.28;1031483;28;20845;-68
2021/09/07 01:08:55;;;;;;;19.70;15.40;;;;;;;10.69;100.00;96492.47;1019393;29;20537;-67
2021/09/07 01:09:26;;;;;;;22.02;15.52;;;;;;;10.61;100.00;96485.81;1027170;28;20811;-65
2021/09/07 01:09:56;;;;;;;20.75;14.63;;;;;;;10.66;100.00;96500.03;1031516;28;20038;-68
2021/09/07 01:10:26;;;;;;;18.27;13.45;;;;;;;10.64;100.00;96496.88;1031536;28;20142;-67
2021/09/07 01:10:57;;;;;;;21.35;14.77;;;;;;;10.64;100.00;96497.66;1031550;28;20031;-67
2021/09/07 01:11:27;;;;;;;19.48;13.98;;;;;;;10.56;100.00;96488.38;1025184;28;20037;-64
2021/09/07 01:11:58;;;;;;;25.60;13.95;;;;;;;10.56;100.00;96488.38;1023618;28;20406;-68
2021/09/07 01:12:28;;;;;;;17.60;13.60;;;;;;;10.56;100.00;96483.13;1015618;29;20032;-67
2021/09/07 01:12:59;;;;;;;20.25;13.95;;;;;;;10.60;100.00;96491.31;1024519;28;20027;-67
2021/09/07 01:13:29;;;;;;;20.77;14.85;;;;;;;10.58;100.00;96499.41;1027588;28;20035;-68
2021/09/07 01:14:00;;;;;;;20.92;14.40;;;;;;;10.57;100.00;96495.22;1031632;28;20093;-67
2021/09/07 01:14:32;;;;;;;21.77;14.63;;;;;;;10.54;100.00;96490.44;1031267;28;20688;-67
2021/09/07 01:15:03;;;;;;;15.82;13.52;;;;;;;10.57;100.00;96495.22;1035400;28;20057;-67
2021/09/07 01:15:33;;;;;;;15.30;13.25;;;;;;;10.55;100.00;96497.28;1035458;28;20318;-67
2021/09/07 01:16:04;;;;;;;18.58;13.13;;;;;;;10.55;100.00;96497.28;1035873;28;20355;-67
2021/09/07 01:16:35;;;;;;;20.20;13.15;;;;;;;10.56;100.00;96496.25;1039335;28;20033;-67
2021/09/07 01:17:11;;;;;;;18.48;13.95;;;;;;;10.51;100.00;96485.69;1031680;28;20037;-67
2021/09/07 01:17:41;;;;;;;20.98;14.40;;;;;;;10.54;100.00;96500.94;1030815;28;20730;-68
2021/09/07 01:18:12;;;;;;;18.30;13.68;;;;;;;10.53;100.00;96494.13;1027075;28;20266;-67
2021/09/07 01:18:45;;;;;;;19.40;13.88;;;;;;;10.48;100.00;96490.63;1021821;28;20038;-68
2021/09/07 01:19:15;;;;;;;19.92;14.50;;;;;;;10.52;100.00;96500.38;1024007;28;20270;-67
2021/09/07 01:19:47;;;;;;;18.30;13.68;;;;;;;10.52;100.00;96492.50;1027977;28;20047;-67
2021/09/07 01:20:17;;;;;;;17.02;14.13;;;;;;;10.52;100.00;96496.97;1031391;28;20065;-67
2021/09/07 01:20:48;;;;;;;17.52;14.07;;;;;;;10.51;100.00;96498.81;1031217;28;20276;-68
2021/09/07 01:21:18;;;;;;;23.58;14.48;;;;;;;10.46;100.00;96488.25;1031093;28;20030;-66
2021/09/07 01:21:49;;;;;;;18.80;14.88;;;;;;;10.49;100.00;96493.00;1032253;28;20018;-67
2021/09/07 01:22:21;;;;;;;21.15;13.05;;;;;;;10.49;100.00;96497.44;1035461;28;20480;-67
2021/09/07 01:22:51;;;;;;;19.70;15.25;;;;;;;10.48;100.00;96501.91;1031266;28;20014;-68
2021/09/07 01:23:21;;;;;;;18.88;13.93;;;;;;;10.48;100.00;96501.91;1029675;28;20270;-67
2021/09/07 01:23:52;;;;;;;19.20;14.73;;;;;;;10.43;100.00;96488.75;1023699;28;20030;-67
2021/09/07 01:24:24;;;;;;;18.05;14.70;;;;;;;10.42;100.00;96492.38;1023575;28;20024;-66
2021/09/07 01:24:55;;;;;;;18.48;14.23;;;;;;;10.47;100.00;96499.53;1023187;29;20031;-67
2021/09/07 01:25:25;;;;;;;19.95;14.55;;;;;;;10.47;100.00;96504.78;1027485;28;20764;-67
2021/09/07 01:25:55;;;;;;;16.75;13.70;;;;;;;10.46;100.00;96506.63;1031453;28;20516;-66
2021/09/07 01:26:26;;;;;;;19.65;13.57;;;;;;;10.41;100.00;96498.66;1027616;28;20034;-64
2021/09/07 01:26:56;;;;;;;18.70;15.38;;;;;;;10.46;100.00;96504.00;1022998;28;20046;-68
2021/09/07 01:27:27;;;;;;;16.45;13.18;;;;;;;10.47;100.00;96507.41;1027676;28;20027;-67
2021/09/07 01:27:57;;;;;;;19.15;14.38;;;;;;;10.49;100.00;96507.94;1031355;28;20050;-67
2021/09/07 01:28:29;;;;;;;17.27;13.90;;;;;;;10.40;100.00;96494.47;1029015;28;20037;-67
2021/09/07 01:29:00;;;;;;;17.00;13.98;;;;;;;10.43;100.00;96499.25;1031307;28;20030;-67
2021/09/07 01:29:31;;;;;;;19.70;14.18;;;;;;;10.45;100.00;96507.63;1027414;28;20286;-67
2021/09/07 01:30:01;;;;;;;16.60;13.50;;;;;;;10.46;100.00;96511.88;1031102;28;20229;-68
2021/09/07 01:30:32;;;;;;;17.70;14.32;;;;;;;10.46;100.00;96511.06;1031517;28;20707;-67
2021/09/07 01:31:03;;;;;;;18.08;14.57;;;;;;;10.45;100.00;96505.00;1027395;28;20026;-67
2021/09/07 01:31:33;;;;;;;17.38;14.32;;;;;;;10.38;100.00;96497.31;1026921;28;20501;-67
2021/09/07 01:32:04;;;;;;;19.15;13.85;;;;;;;10.44;100.00;96508.69;1023288;29;20019;-67
2021/09/07 01:32:34;;;;;;;17.38;13.93;;;;;;;10.44;100.00;96516.56;1019525;29;20035;-66
2021/09/07 01:33:05;;;;;;;19.45;15.18;;;;;;;10.44;100.00;96507.91;1019710;29;20024;-67
2021/09/07 01:33:35;;;;;;;19.63;14.43;;;;;;;10.44;100.00;96513.94;1025215;28;20058;-67
2021/09/07 01:34:06;;;;;;;17.35;14.23;;;;;;;10.40;100.00;96498.94;1031779;28;20026;-67
2021/09/07 01:34:37;;;;;;;17.23;13.88;;;;;;;10.38;100.00;96496.53;1031409;28;20018;-68
2021/09/07 01:35:08;;;;;;;18.60;14.13;;;;;;;10.42;100.00;96500.25;1031285;28;20541;-67
2021/09/07 01:35:39;;;;;;;20.25;14.40;;;;;;;10.36;100.00;96498.59;1027292;28;20261;-67
2021/09/07 01:36:10;;;;;;;19.15;13.23;;;;;;;10.40;100.00;96502.34;1027444;28;20027;-67
2021/09/07 01:36:40;;;;;;;17.00;13.48;;;;;;;10.40;100.00;96510.22;1027354;28;20308;-67
2021/09/07 01:37:11;;;;;;;18.73;14.50;;;;;;;10.31;100.00;96491.47;1027143;28;20031;-67
2021/09/07 01:37:42;;;;;;;20.30;13.77;;;;;;;10.41;100.00;96511.78;1027131;28;20125;-67
2021/09/07 01:38:13;;;;;;;22.77;13.40;;;;;;;10.41;100.00;96506.53;1031622;28;20022;-64
2021/09/07 01:38:43;;;;;;;19.23;14.10;;;;;;;10.42;100.00;96504.72;1031177;28;20277;-67
2021/09/07 01:39:14;;;;;;;21.50;13.52;;;;;;;10.35;100.00;96497.00;1027307;28;20031;-64
2021/09/07 01:39:44;;;;;;;17.10;13.50;;;;;;;10.42;100.00;96505.50;1023429;29;20023;-67
2021/09/07 01:40:15;;;;;;;20.98;13.57;;;;;;;10.45;100.00;96506.84;1024126;28;20059;-67
2021/09/07 01:40:45;;;;;;;20.35;14.32;;;;;;;10.40;100.00;96497.09;1027386;28;20030;-66
2021/09/07 01:41:16;;;;;;;19.13;13.30;;;;;;;10.41;100.00;96496.03;1027202;28;20014;-67
2021/09/07 01:41:46;;;;;;;18.13;13.30;;;;;;;10.47;100.00;96505.56;1039306;28;20021;-68
2021/09/07 01:42:17;;;;;;;17.67;14.07;;;;;;;10.48;100.00;96509.78;1038821;28;20075;-68
2021/09/07 01:42:47;;;;;;;17.63;12.93;;;;;;;10.44;100.00;96500.81;1039508;28;20059;-67
2021/09/07 01:43:18;;;;;;;21.13;13.55;;;;;;;10.48;100.00;96507.16;1030446;28;20094;-67
2021/09/07 01:43:49;;;;;;;17.30;13.30;;;;;;;10.46;100.00;96501.38;1024623;28;20029;-66
2021/09/07 01:44:20;;;;;;;22.88;15.15;;;;;;;10.51;100.00;96508.50;1028409;28;20057;-65
2021/09/07 01:44:50;;;;;;;19.10;13.02;;;;;;;10.51;100.00;96505.88;1030967;28;20273;-68
2021/09/07 01:45:21;;;;;;;17.23;12.77;;;;;;;10.49;100.00;96500.88;1030957;28;20396;-67
2021/09/07 01:45:52;;;;;;;17.83;12.55;;;;;;;10.50;100.00;96510.34;1023149;28;20387;-67
2021/09/07 01:46:22;;;;;;;17.13;12.90;;;;;;;10.51;100.00;96501.44;1027270;28;20490;-67
2021/09/07 01:46:53;;;;;;;15.95;13.00;;;;;;;10.51;100.00;96506.69;1026972;28;20266;-66
2021/09/07 01:47:23;;;;;;;16.83;12.57;;;;;;;10.54;100.00;96508.03;1026898;28;20023;-67
2021/09/07 01:47:54;;;;;;;15.07;13.32;;;;;;;10.53;100.00;96504.63;1034996;28;20044;-67
2021/09/07 01:48:25;;;;;;;16.70;12.90;;;;;;;10.55;100.00;96507.78;1035248;28;20022;-67
2021/09/07 01:48:55;;;;;;;17.05;12.68;;;;;;;10.56;100.00;96506.75;1034880;28;20659;-66
2021/09/07 01:49:26;;;;;;;19.42;13.43;;;;;;;10.56;100.00;96501.50;1031377;28;20191;-67
2021/09/07 01:49:56;;;;;;;18.10;12.45;;;;;;;10.57;100.00;96513.59;1027092;28;20106;-64
2021/09/07 01:50:27;;;;;;;19.50;13.07;;;;;;;10.59;100.00;96513.31;1030783;28;20632;-67
2021/09/07 01:50:57;;;;;;;16.23;13.10;;;;;;;10.58;100.00;96502.03;1034905;28;20403;-67
2021/09/07 01:51:28;;;;;;;19.02;13.45;;;;;;;10.61;100.00;96500.75;1038320;28;20036;-68
2021/09/07 01:51:58;;;;;;;16.45;13.55;;;;;;;10.61;100.00;96506.00;1038909;28;20033;-67
2021/09/07 01:52:28;;;;;;;18.58;13.10;;;;;;;10.61;100.00;96506.81;1026617;28;20030;-67
2021/09/07 01:52:59;;;;;;;17.40;12.40;;;;;;;10.60;100.00;96505.22;1023022;29;20105;-67
2021/09/07 01:53:29;;;;;;;16.65;13.20;;;;;;;10.55;100.00;96497.28;1019267;29;20585;-67
2021/09/07 01:54:00;;;;;;;15.45;13.40;;;;;;;10.59;100.00;96502.81;1026491;28;20027;-68
2021/09/07 01:54:30;;;;;;;17.48;13.90;;;;;;;10.59;100.00;96498.38;1027157;28;20034;-67
2021/09/07 01:55:01;;;;;;;18.70;13.75;;;;;;;10.59;100.00;96501.00;1031322;28;20026;-67
2021/09/07 01:55:31;;;;;;;20.10;15.00;;;;;;;10.58;100.00;96499.41;1035030;28;20080;-68
2021/09/07 01:56:01;;;;;;;19.58;14.48;;;;;;;10.55;100.00;96497.28;1039352;28;20026;-67
2021/09/07 01:56:32;;;;;;;20.50;15.10;;;;;;;10.55;100.00;96491.25;1035096;28;20034;-68
2021/09/07 01:57:02;;;;;;;20.08;13.35;;;;;;;10.57;100.00;96500.47;1035199;28;20025;-67
2021/09/07 01:57:33;;;;;;;19.08;14.25;;;;;;;10.58;100.00;96502.03;1034519;28;20053;-65
2021/09/07 01:58:03;;;;;;;16.88;13.55;;;;;;;10.57;100.00;96495.22;1031074;28;20023;-66
2021/09/07 01:58:34;;;;;;;20.02;13.90;;;;;;;10.58;100.00;96496.78;1031052;28;20077;-66
2021/09/07 01:59:04;;;;;;;17.85;14.50;;;;;;;10.58;100.00;96501.25;1027194;28;20034;-67
2021/09/07 01:59:36;;;;;;;17.17;13.20;;;;;;;10.52;100.00;96491.72;1031155;28;20447;-63
2021/09/07 02:00:07;;;;;;;20.20;15.05;;;;;;;10.58;100.00;96491.53;1031479;28;20111;-68
2021/09/07 02:00:37;;;;;;;16.80;14.40;;;;;;;10.52;100.00;96491.72;1025835;28;20282;-64
2021/09/07 02:01:08;;;;;;;20.05;14.18;;;;;;;10.43;100.00;96478.25;1023121;29;20030;-67
2021/09/07 02:01:38;;;;;;;17.23;13.02;;;;;;;10.52;100.00;96491.72;1022631;29;20075;-68
2021/09/07 02:02:09;;;;;;;16.02;12.93;;;;;;;10.57;100.00;96502.28;1023208;29;20089;-67
2021/09/07 02:02:39;;;;;;;19.52;13.48;;;;;;;10.56;100.00;96503.31;1018915;29;20540;-67
2021/09/07 02:03:10;;;;;;;18.83;13.50;;;;;;;10.52;100.00;96495.13;1023299;29;20252;-67
2021/09/07 02:03:40;;;;;;;17.55;14.80;;;;;;;10.56;100.00;96509.38;1027072;28;20089;-68
2021/09/07 02:04:11;;;;;;;21.17;14.05;;;;;;;10.50;100.00;96489.34;1033349;28;20647;-67
2021/09/07 02:04:45;;;;;;;19.50;14.65;;;;;;;10.54;100.00;96500.94;1030840;28;20468;-67
2021/09/07 02:05:15;;;;;;;16.55;14.00;;;;;;;10.53;100.00;96502.00;1027102;28;20031;-67
2021/09/07 02:05:46;;;;;;;16.70;14.20;;;;;;;10.53;100.00;96498.53;1023814;28;20263;-66
2021/09/07 02:06:16;;;;;;;17.42;14.10;;;;;;;10.47;100.00;96494.28;1031103;28;20037;-68
2021/09/07 02:06:47;;;;;;;17.17;13.80;;;;;;;10.55;100.00;96505.16;1030847;28;20046;-67
2021/09/07 02:07:17;;;;;;;18.92;14.40;;;;;;;10.52;100.00;96503.00;1026998;28;20087;-67
2021/09/07 02:07:48;;;;;;;21.63;15.00;;;;;;;10.51;100.00;96501.44;1022687;28;20087;-67
2021/09/07 02:08:18;;;;;;;18.38;14.70;;;;;;;10.50;100.00;96496.44;1017564;29;20032;-67
2021/09/07 02:08:49;;;;;;;19.65;14.38;;;;;;;10.47;100.00;96500.34;1019117;29;20028;-68
2021/09/07 02:09:19;;;;;;;19.23;15.43;;;;;;;10.48;100.00;96501.91;1022700;28;20098;-67
2021/09/07 02:09:51;;;;;;;32.08;13.75;;;;;;;10.47;100.00;96500.34;1027259;28;20041;-67
2021/09/07 02:10:21;;;;;;;29.08;15.35;;;;;;;10.45;100.00;96497.16;1027160;28;20485;-67
2021/09/07 02:10:52;;;;;;;21.77;16.02;;;;;;;10.37;100.00;96484.47;1022389;28;20274;-64
2021/09/07 02:11:22;;;;;;;23.58;15.20;;;;;;;10.42;100.00;96492.38;1022775;28;20054;-64
2021/09/07 02:11:53;;;;;;;21.20;14.93;;;;;;;10.46;100.00;96504.00;1023181;28;20039;-65
2021/09/07 02:12:23;;;;;;;23.77;14.43;;;;;;;10.45;100.00;96502.41;1023441;28;20035;-67
2021/09/07 02:12:53;;;;;;;17.52;14.10;;;;;;;10.44;100.00;96500.03;1030680;28;20043;-67
2021/09/07 02:13:24;;;;;;;20.20;15.38;;;;;;;10.42;100.00;96496.84;1031140;28;20045;-68
2021/09/07 02:13:54;;;;;;;22.00;16.23;;;;;;;10.34;100.00;96484.94;1030457;28;20033;-67
2021/09/07 02:14:25;;;;;;;21.52;15.10;;;;;;;10.32;100.00;96487.78;1026653;28;20067;-67
2021/09/07 02:14:55;;;;;;;19.55;14.68;;;;;;;10.36;100.00;96494.16;1034915;28;20088;-67
2021/09/07 02:15:26;;;;;;;20.45;15.75;;;;;;;10.31;100.00;96485.41;1027158;28;20113;-68
2021/09/07 02:15:56;;;;;;;20.65;15.20;;;;;;;10.35;100.00;96491.75;1027142;28;20027;-67
2021/09/07 02:16:27;;;;;;;19.88;14.55;;;;;;;10.34;100.00;96492.81;1022881;28;20035;-68
2021/09/07 02:16:57;;;;;;;18.92;14.63;;;;;;;10.31;100.00;96491.47;1026829;28;20101;-68
2021/09/07 02:17:27;;;;;;;21.52;15.15;;;;;;;10.34;100.00;96487.56;1031054;28;20034;-67
2021/09/07 02:17:58;;;;;;;20.15;15.55;;;;;;;10.28;100.00;96488.53;1030676;28;20503;-67
2021/09/07 02:18:28;;;;;;;27.65;15.40;;;;;;;10.33;100.00;96491.22;1030985;28;20561;-67
2021/09/07 02:18:59;;;;;;;23.42;15.80;;;;;;;10.26;100.00;96483.53;1026752;28;20031;-67
2021/09/07 02:19:29;;;;;;;24.48;16.00;;;;;;;10.31;100.00;96498.53;1025861;28;20027;-68